Time;durP1;ratioP1;P1;durP2;ratioP2;P2;SDS_P1;SDS_P2;PMS_P1;PMS_P2;Temp;Humidity;BMP_temperature;BMP_pressure;BME280_temperature;BME280_humidity;BME280_pressure;Samples;Min_cycle;Max_cycle;Signal;HPM_P1;HPM_P2
2023/03/07 00:02:17;;;;;;;24.75;9.73;;;;;;;7.64;99.78;96530.28;5103305;27;20027;-80
2023/03/07 00:04:44;;;;;;;21.02;9.07;;;;;;;7.76;100.00;96546.38;5110513;27;20031;-80
2023/03/07 00:07:10;;;;;;;19.65;8.85;;;;;;;7.71;100.00;96525.41;5121948;27;20424;-81
2023/03/07 00:09:36;;;;;;;15.50;7.47;;;;;;;7.69;100.00;96532.63;5109608;27;20114;-80
2023/03/07 00:12:01;;;;;;;17.98;8.90;;;;;;;7.58;100.00;96540.47;5103236;27;20047;-80
2023/03/07 00:14:27;;;;;;;19.85;8.32;;;;;;;7.48;100.00;96524.25;5127493;27;20384;-81
2023/03/07 00:16:52;;;;;;;17.05;7.97;;;;;;;7.48;100.00;96534.91;5144643;27;20023;-81
2023/03/07 00:19:19;;;;;;;14.90;7.30;;;;;;;7.27;100.00;96517.69;5142030;27;20038;-81
2023/03/07 00:21:44;;;;;;;16.77;7.47;;;;;;;7.28;100.00;96523.88;5126178;27;20031;-81
2023/03/07 00:24:10;;;;;;;17.23;7.25;;;;;;;7.24;100.00;96515.25;5133744;27;20092;-81
2023/03/07 00:26:38;;;;;;;12.63;6.72;;;;;;;7.37;100.00;96542.75;5121498;27;20486;-80
2023/03/07 00:29:06;;;;;;;15.00;6.63;;;;;;;7.25;100.00;96537.38;5143572;27;20475;-80
2023/03/07 00:31:31;;;;;;;17.25;7.63;;;;;;;7.28;100.00;96537.19;5130971;27;20046;-79
2023/03/07 00:33:57;;;;;;;12.40;6.43;;;;;;;7.23;100.00;96555.25;5098348;27;20030;-79
2023/03/07 00:36:23;;;;;;;17.05;7.30;;;;;;;7.16;100.00;96545.94;5098311;27;20117;-80
2023/03/07 00:38:49;;;;;;;15.00;7.13;;;;;;;7.00;100.00;96538.09;5105738;27;20066;-80
2023/03/07 00:41:17;;;;;;;17.95;7.97;;;;;;;7.09;100.00;96549.00;5144562;27;20403;-80
2023/03/07 00:43:44;;;;;;;15.15;7.70;;;;;;;7.09;100.00;96538.38;5112652;27;20035;-80
2023/03/07 00:46:09;;;;;;;15.43;8.30;;;;;;;6.92;100.00;96532.44;5131313;27;20063;-80
2023/03/07 00:48:37;;;;;;;12.63;6.90;;;;;;;6.94;100.00;96539.34;5123494;27;20055;-80
2023/03/07 00:51:03;;;;;;;16.42;7.22;;;;;;;6.94;100.00;96530.53;5138271;27;20027;-80
2023/03/07 00:53:29;;;;;;;14.57;6.93;;;;;;;7.35;100.00;96522.53;5127005;27;20026;-81
2023/03/07 00:56:00;;;;;;;15.25;6.57;;;;;;;8.24;95.30;96502.25;5141317;27;20019;-81
2023/03/07 00:58:27;;;;;;;13.25;6.15;;;;;;;8.86;88.97;96506.69;5141239;27;20027;-81
2023/03/07 01:00:54;;;;;;;13.57;5.93;;;;;;;9.40;84.50;96499.16;5108285;27;20057;-81
2023/03/07 01:03:19;;;;;;;14.13;6.22;;;;;;;9.58;81.54;96492.44;5098299;27;20075;-81
2023/03/07 01:05:45;;;;;;;11.45;5.80;;;;;;;9.75;80.76;96501.88;5146384;27;20117;-81
2023/03/07 01:08:11;;;;;;;11.05;5.78;;;;;;;9.70;79.53;96490.66;5104781;27;20031;-81
2023/03/07 01:10:37;;;;;;;11.80;6.57;;;;;;;9.73;79.60;96501.13;5130284;27;20023;-80
2023/03/07 01:13:03;;;;;;;9.90;5.13;;;;;;;9.75;79.61;96502.69;5097879;27;20026;-82
2023/03/07 01:15:29;;;;;;;13.48;6.45;;;;;;;9.65;79.96;96507.03;5098249;27;20023;-80
2023/03/07 01:17:54;;;;;;;12.90;5.97;;;;;;;9.63;80.20;96500.94;5101717;27;20083;-81
2023/03/07 01:20:20;;;;;;;10.73;5.55;;;;;;;9.65;80.08;96506.19;5132830;27;20023;-81
2023/03/07 01:22:45;;;;;;;11.77;5.47;;;;;;;9.61;80.00;96494.03;5100684;27;20047;-81
2023/03/07 01:25:12;;;;;;;17.02;5.95;;;;;;;9.69;79.53;96486.31;5139602;27;20027;-81
2023/03/07 01:27:38;;;;;;;11.43;5.32;;;;;;;9.69;79.61;96497.00;5114955;27;20015;-81
2023/03/07 01:30:05;;;;;;;12.57;5.75;;;;;;;9.72;79.18;96488.75;5102534;27;20099;-81
2023/03/07 01:32:31;;;;;;;13.15;5.40;;;;;;;9.74;78.98;96506.34;5140434;27;20035;-81
2023/03/07 01:34:56;;;;;;;10.43;5.90;;;;;;;9.77;79.06;96491.91;5157792;27;20030;-82
2023/03/07 01:37:22;;;;;;;10.88;5.32;;;;;;;9.77;79.03;96499.91;5113479;27;20031;-80
2023/03/07 01:39:52;;;;;;;10.32;5.55;;;;;;;9.77;79.13;96489.25;5099960;27;20031;-81
2023/03/07 01:42:19;;;;;;;11.70;5.47;;;;;;;9.71;79.68;96487.03;5141899;27;20042;-79
2023/03/07 01:45:01;;;;;;;10.85;5.68;;;;;;;9.82;79.33;96495.06;5107940;27;20470;-81
2023/03/07 01:47:27;;;;;;;12.60;5.65;;;;;;;9.80;79.28;96494.34;5140779;27;20520;-81
2023/03/07 01:49:52;;;;;;;11.38;6.20;;;;;;;9.78;79.62;96504.31;5118210;27;20027;-81
2023/03/07 01:52:26;;;;;;;13.73;6.70;;;;;;;9.76;79.53;96490.19;5114806;27;20058;-80
2023/03/07 01:55:00;;;;;;;13.10;5.88;;;;;;;9.77;79.01;96492.78;5128616;27;20035;-81
2023/03/07 01:57:32;;;;;;;12.05;6.15;;;;;;;9.84;78.66;96495.84;5130432;27;20043;-80
2023/03/07 01:59:59;;;;;;;12.77;5.50;;;;;;;9.83;78.36;96488.78;5106390;27;20031;-81
2023/03/07 02:02:25;;;;;;;11.95;6.05;;;;;;;9.78;79.34;96490.97;5120486;27;20023;-81
2023/03/07 02:04:53;;;;;;;10.75;5.70;;;;;;;9.74;79.74;96490.34;5112461;27;20023;-80
2023/03/07 02:07:20;;;;;;;10.48;5.07;;;;;;;9.71;79.62;96490.56;5120592;27;20027;-80
2023/03/07 02:09:47;;;;;;;9.50;4.75;;;;;;;9.72;79.54;96483.41;5103120;27;20027;-81
2023/03/07 02:12:13;;;;;;;11.23;6.07;;;;;;;9.81;79.68;96501.41;5116279;27;20033;-81
2023/03/07 02:14:42;;;;;;;13.35;5.82;;;;;;;9.89;79.11;96500.81;5091799;28;20027;-81
2023/03/07 02:17:07;;;;;;;8.98;5.25;;;;;;;9.86;78.45;96488.53;5109981;27;20474;-81
2023/03/07 02:19:53;;;;;;;9.95;5.47;;;;;;;9.99;78.38;96492.00;5104584;28;20019;-80
2023/03/07 02:22:18;;;;;;;9.75;5.20;;;;;;;10.02;77.68;96488.22;5133417;27;20076;-81
2023/03/07 02:24:53;;;;;;;13.05;5.70;;;;;;;10.10;76.77;96485.81;5116141;28;20105;-81
2023/03/07 02:27:19;;;;;;;9.20;4.82;;;;;;;10.16;76.64;96491.56;5122266;28;20023;-81
2023/03/07 02:29:45;;;;;;;14.07;5.40;;;;;;;10.10;77.16;96486.66;5100318;28;20035;-81
2023/03/07 02:32:10;;;;;;;9.73;4.80;;;;;;;10.00;77.35;96469.63;5145938;27;20495;-81
2023/03/07 02:34:36;;;;;;;11.52;5.68;;;;;;;9.94;77.92;96474.59;5105361;28;20378;-81
2023/03/07 02:37:09;;;;;;;11.07;5.65;;;;;;;9.87;78.70;96476.03;5140695;27;20464;-81
2023/03/07 02:39:34;;;;;;;24.13;4.90;;;;;;;9.82;79.01;96487.91;5113720;27;20030;-81
2023/03/07 02:42:06;;;;;;;9.75;4.82;;;;;;;9.85;78.40;96480.63;5100962;27;20030;-80
2023/03/07 02:44:32;;;;;;;11.55;5.70;;;;;;;9.86;78.32;96485.00;5111338;27;20023;-80
2023/03/07 02:46:57;;;;;;;9.48;4.80;;;;;;;9.79;78.47;96481.94;5117620;27;20509;-79
2023/03/07 02:49:23;;;;;;;12.20;5.35;;;;;;;9.89;77.74;96485.63;5102971;27;20031;-80
2023/03/07 02:51:48;;;;;;;8.75;5.10;;;;;;;9.87;77.69;96492.06;5151982;27;20100;-80
2023/03/07 02:54:14;;;;;;;10.88;5.05;;;;;;;9.75;77.65;96489.34;5149205;27;20031;-81
2023/03/07 02:56:40;;;;;;;10.65;4.95;;;;;;;9.81;78.39;96496.06;5146235;27;20039;-80
2023/03/07 02:59:05;;;;;;;15.25;5.80;;;;;;;9.69;79.05;96494.31;5143353;27;20087;-80
2023/03/07 03:01:31;;;;;;;9.93;5.40;;;;;;;9.67;79.49;96499.75;5109215;27;20019;-80
2023/03/07 03:03:57;;;;;;;13.98;5.80;;;;;;;9.70;79.47;96496.00;5123333;27;20530;-80
2023/03/07 03:06:23;;;;;;;8.00;4.68;;;;;;;9.76;78.51;96490.19;5107765;27;20042;-81
2023/03/07 03:08:48;;;;;;;9.07;4.20;;;;;;;9.73;78.32;96482.41;5100393;27;20801;-80
2023/03/07 03:11:14;;;;;;;10.95;5.05;;;;;;;9.78;78.74;96506.97;5148886;27;20078;-81
2023/03/07 03:13:39;;;;;;;9.23;4.57;;;;;;;9.85;78.08;96507.34;5127457;27;20490;-80
2023/03/07 03:16:05;;;;;;;10.20;5.18;;;;;;;9.80;78.11;96499.69;5134462;27;20019;-80
2023/03/07 03:18:31;;;;;;;9.15;5.03;;;;;;;9.84;77.91;96506.50;5108801;27;20023;-81
2023/03/07 03:20:56;;;;;;;13.02;6.20;;;;;;;9.82;77.58;96508.44;5108920;27;20134;-81
2023/03/07 03:23:22;;;;;;;13.57;6.45;;;;;;;9.80;78.05;96515.72;5103242;27;20074;-81
2023/03/07 03:25:59;;;;;;;16.00;6.40;;;;;;;9.83;77.55;96510.13;5105490;27;20479;-80
2023/03/07 03:28:24;;;;;;;11.20;5.85;;;;;;;9.78;78.24;96506.97;5104085;27;20058;-80
2023/03/07 03:31:01;;;;;;;11.02;4.90;;;;;;;9.81;78.00;96504.91;5168933;27;20027;-81
2023/03/07 03:33:30;;;;;;;8.32;5.07;;;;;;;9.80;77.47;96513.91;5121281;27;20027;-78
2023/03/07 03:36:03;;;;;;;9.10;5.10;;;;;;;9.84;77.84;96519.88;5142779;27;20088;-80
2023/03/07 03:38:29;;;;;;;10.15;5.53;;;;;;;9.75;78.89;96512.56;5112712;27;20032;-80
2023/03/07 03:40:54;;;;;;;13.40;5.78;;;;;;;9.72;79.11;96515.44;5125693;27;20443;-80
2023/03/07 03:43:20;;;;;;;16.27;6.57;;;;;;;9.67;79.87;96518.44;5127745;27;20421;-80
2023/03/07 03:45:56;;;;;;;13.65;6.40;;;;;;;9.51;81.71;96525.03;5103272;27;20492;-80
2023/03/07 03:48:21;;;;;;;11.07;6.22;;;;;;;9.52;84.41;96534.75;5109878;27;20367;-80
2023/03/07 03:50:47;;;;;;;12.82;5.95;;;;;;;9.52;84.61;96532.09;5138254;27;20093;-81
2023/03/07 03:53:12;;;;;;;11.30;6.85;;;;;;;9.50;81.57;96521.53;5112767;27;20035;-80
2023/03/07 03:55:38;;;;;;;12.57;6.28;;;;;;;9.51;82.72;96536.56;5116509;27;20019;-81
2023/03/07 03:58:03;;;;;;;13.52;6.97;;;;;;;9.40;82.21;96517.84;5116520;27;20034;-81
2023/03/07 04:00:29;;;;;;;12.80;6.25;;;;;;;9.45;83.07;96528.16;5126661;27;20062;-81
2023/03/07 04:02:55;;;;;;;15.45;6.40;;;;;;;9.44;84.84;96540.69;5101506;27;20079;-81
2023/03/07 04:05:21;;;;;;;15.05;6.63;;;;;;;9.36;85.37;96531.50;5145147;27;20027;-80
2023/03/07 04:07:47;;;;;;;14.38;7.20;;;;;;;9.27;87.77;96543.72;5099083;27;20019;-77
2023/03/07 04:10:12;;;;;;;17.85;7.00;;;;;;;9.24;89.64;96543.94;5111489;27;20402;-81
2023/03/07 04:12:40;;;;;;;12.25;6.18;;;;;;;9.04;90.40;96548.06;5142361;27;20042;-82
2023/03/07 04:15:07;;;;;;;11.70;6.10;;;;;;;8.99;92.30;96550.19;5119361;27;20038;-81
2023/03/07 04:17:33;;;;;;;18.52;7.15;;;;;;;8.89;92.18;96542.97;5132824;27;20048;-81
2023/03/07 04:19:59;;;;;;;12.93;6.60;;;;;;;8.80;93.17;96538.28;5132370;27;20026;-82
2023/03/07 04:22:24;;;;;;;14.00;6.05;;;;;;;8.80;92.65;96544.44;5132571;27;20490;-82
2023/03/07 04:24:50;;;;;;;11.55;6.18;;;;;;;8.71;92.34;96537.97;5134588;27;20023;-82
2023/03/07 04:27:16;;;;;;;17.00;6.78;;;;;;;8.74;92.22;96544.88;5150756;27;20371;-82
2023/03/07 04:29:42;;;;;;;15.15;6.53;;;;;;;8.72;90.92;96541.47;5115610;27;20027;-82
2023/03/07 04:32:07;;;;;;;11.55;6.13;;;;;;;8.82;88.55;96531.88;5124814;27;20027;-81
2023/03/07 04:34:33;;;;;;;13.45;6.38;;;;;;;8.93;87.73;96539.94;5098775;27;20399;-83
2023/03/07 04:36:58;;;;;;;37.58;17.30;;;;;;;9.00;87.42;96541.22;5108942;27;20030;-83
2023/03/07 04:39:24;;;;;;;16.80;6.03;;;;;;;9.13;84.66;96535.88;5102558;27;20027;-81
2023/03/07 04:41:49;;;;;;;22.83;7.82;;;;;;;9.28;84.02;96550.75;5123559;27;20027;-81
2023/03/07 04:44:15;;;;;;;11.57;6.18;;;;;;;9.38;82.43;96543.78;5117495;27;20035;-86
2023/03/07 04:46:41;;;;;;;163.20;76.63;;;;;;;9.45;86.20;96566.38;5099534;27;20432;-81
2023/03/07 04:49:07;;;;;;;58.40;28.33;;;;;;;9.47;84.09;96558.28;5104842;27;20042;-81
2023/03/07 04:51:32;;;;;;;24.63;12.27;;;;;;;9.40;83.85;96557.88;5106704;27;20503;-81
2023/03/07 04:53:58;;;;;;;14.30;6.68;;;;;;;9.49;81.92;96543.84;5123810;27;20478;-82
2023/03/07 04:56:23;;;;;;;22.05;8.13;;;;;;;9.53;81.66;96552.47;5110731;27;20030;-80
2023/03/07 04:58:49;;;;;;;18.60;6.60;;;;;;;9.59;80.79;96544.03;5139751;27;20784;-81
2023/03/07 05:01:14;;;;;;;15.30;6.55;;;;;;;9.68;80.95;96556.69;5138006;27;20486;-81
2023/03/07 05:03:40;;;;;;;24.05;11.95;;;;;;;9.68;80.69;96552.19;5097745;27;20027;-81
2023/03/07 05:06:07;;;;;;;16.27;8.68;;;;;;;9.77;79.98;96564.88;5107844;27;20027;-81
2023/03/07 05:08:33;;;;;;;15.88;8.07;;;;;;;9.81;80.59;96570.84;5126802;27;20126;-79
2023/03/07 05:10:59;;;;;;;12.13;5.80;;;;;;;9.90;78.82;96563.94;5097587;27;20095;-81
2023/03/07 05:13:25;;;;;;;10.65;5.82;;;;;;;10.03;77.77;96570.91;5127406;27;20026;-82
2023/03/07 05:15:58;;;;;;;15.13;8.07;;;;;;;10.10;77.28;96573.97;5142654;27;20038;-80
2023/03/07 05:18:24;;;;;;;14.65;6.03;;;;;;;10.17;76.89;96575.25;5117476;27;20027;-81
2023/03/07 05:20:50;;;;;;;17.42;8.90;;;;;;;10.19;76.50;96568.81;5107568;27;20062;-83
2023/03/07 05:23:17;;;;;;;20.30;7.68;;;;;;;10.32;76.18;96576.75;5106588;27;20474;-83
2023/03/07 05:25:43;;;;;;;13.07;6.85;;;;;;;10.31;76.01;96581.25;5120314;27;20046;-80
2023/03/07 05:28:08;;;;;;;9.25;5.43;;;;;;;10.41;74.74;96583.22;5131851;27;20031;-81
2023/03/07 05:30:34;;;;;;;13.00;5.20;;;;;;;10.49;74.88;96583.50;5139000;27;20034;-82
2023/03/07 05:32:59;;;;;;;12.85;5.55;;;;;;;10.48;75.12;96587.13;5101795;27;20038;-77
2023/03/07 05:35:25;;;;;;;18.67;6.07;;;;;;;10.54;74.46;96582.16;5115735;27;20493;-78
2023/03/07 05:37:51;;;;;;;11.52;5.38;;;;;;;10.63;73.72;96575.25;5120262;27;20055;-80
2023/03/07 05:40:17;;;;;;;13.10;6.63;;;;;;;10.71;73.68;96583.50;5118228;27;20069;-79
2023/03/07 05:42:43;;;;;;;26.98;9.77;;;;;;;10.84;72.30;96582.44;5111270;27;20030;-75
2023/03/07 05:45:09;;;;;;;11.95;5.82;;;;;;;10.91;71.93;96574.78;5129556;27;20031;-82
2023/03/07 05:47:36;;;;;;;13.02;6.65;;;;;;;11.11;72.04;96583.91;5131223;27;20029;-77
2023/03/07 05:50:01;;;;;;;15.43;6.15;;;;;;;11.17;70.53;96583.41;5118911;27;20434;-76
2023/03/07 05:52:27;;;;;;;11.38;5.72;;;;;;;11.17;69.86;96573.56;5121572;27;20027;-80
2023/03/07 05:54:53;;;;;;;28.58;11.43;;;;;;;11.26;71.52;96583.53;5107345;27;20023;-79
2023/03/07 05:57:19;;;;;;;53.95;23.63;;;;;;;11.38;70.27;96589.75;5133509;27;20538;-84
2023/03/07 05:59:45;;;;;;;14.60;7.28;;;;;;;11.48;68.91;96582.66;5138891;27;20019;-82
2023/03/07 06:02:10;;;;;;;12.25;6.50;;;;;;;11.57;67.30;96571.19;5100079;27;20027;-83
2023/03/07 06:04:36;;;;;;;11.95;5.93;;;;;;;11.73;66.72;96582.41;5130245;27;20492;-81
2023/03/07 06:07:02;;;;;;;30.35;15.55;;;;;;;11.94;67.94;96593.16;5143415;27;20015;-81
2023/03/07 06:09:27;;;;;;;19.45;11.30;;;;;;;12.13;64.87;96582.63;5112195;28;20027;-81
2023/03/07 06:11:53;;;;;;;11.52;5.13;;;;;;;12.34;62.16;96575.44;5110574;27;20023;-81
2023/03/07 06:14:18;;;;;;;15.68;7.95;;;;;;;12.83;60.51;96572.09;5096610;28;20084;-79
2023/03/07 06:16:44;;;;;;;25.40;12.50;;;;;;;13.03;61.00;96573.06;5130839;27;20019;-80
2023/03/07 06:19:09;;;;;;;17.73;7.82;;;;;;;14.11;56.99;96578.50;5106811;28;20513;-77
2023/03/07 06:21:34;;;;;;;14.75;7.05;;;;;;;15.05;53.08;96563.41;5130744;27;20046;-81
2023/03/07 06:24:00;;;;;;;13.43;6.50;;;;;;;15.09;52.44;96549.50;5119949;27;20046;-79
2023/03/07 06:26:25;;;;;;;10.77;5.97;;;;;;;14.92;52.53;96552.13;5113595;28;20103;-78
2023/03/07 06:28:51;;;;;;;7.32;4.07;;;;;;;14.95;51.69;96547.25;5105298;28;20024;-80
2023/03/07 06:31:18;;;;;;;10.68;4.82;;;;;;;15.44;51.09;96553.34;5131785;28;20031;-79
2023/03/07 06:33:44;;;;;;;8.88;4.70;;;;;;;16.61;48.38;96561.38;5121057;28;20503;-80
2023/03/07 06:36:12;;;;;;;10.10;6.00;;;;;;;17.61;45.61;96540.91;5100055;28;20099;-80
2023/03/07 06:38:38;;;;;;;10.82;5.65;;;;;;;18.47;43.43;96525.19;5130550;27;20134;-79
2023/03/07 06:41:04;;;;;;;9.68;4.95;;;;;;;18.76;42.69;96522.88;5114829;28;20106;-80
2023/03/07 06:43:30;;;;;;;8.43;4.90;;;;;;;19.64;41.68;96522.81;5096323;28;20463;-79
2023/03/07 06:45:55;;;;;;;8.38;4.90;;;;;;;21.07;38.91;96519.28;5131948;28;20510;-80
2023/03/07 06:48:21;;;;;;;8.85;4.82;;;;;;;21.89;37.51;96528.28;5113324;28;20027;-80
2023/03/07 06:50:46;;;;;;;16.75;5.15;;;;;;;22.46;36.23;96516.56;5132282;27;20358;-80
2023/03/07 06:53:12;;;;;;;10.23;5.65;;;;;;;22.26;35.57;96510.06;5130880;28;20511;-80
2023/03/07 06:55:37;;;;;;;9.23;5.38;;;;;;;20.52;37.49;96475.28;5122240;28;20083;-81
2023/03/07 06:58:03;;;;;;;14.68;4.97;;;;;;;19.08;39.27;96451.47;5130508;28;20023;-81
2023/03/07 07:00:28;;;;;;;11.00;3.97;;;;;;;17.49;41.82;96454.78;5131525;27;20030;-79
2023/03/07 07:02:54;;;;;;;8.23;4.80;;;;;;;16.36;44.16;96449.63;5096426;28;20068;-81
2023/03/07 07:05:20;;;;;;;10.40;4.78;;;;;;;16.14;45.52;96456.38;5121479;28;20045;-80
2023/03/07 07:07:45;;;;;;;11.00;4.95;;;;;;;16.33;44.65;96459.88;5128263;28;20027;-80
2023/03/07 07:10:11;;;;;;;13.10;7.90;;;;;;;16.30;45.83;96465.59;5122783;28;20037;-81
2023/03/07 07:12:37;;;;;;;16.83;6.78;;;;;;;18.37;43.59;96509.09;5123732;28;20038;-80
2023/03/07 07:15:04;;;;;;;12.13;6.30;;;;;;;20.38;39.73;96509.53;5132710;27;20015;-81
2023/03/07 07:17:31;;;;;;;20.42;6.70;;;;;;;22.42;37.40;96528.91;5116713;28;20027;-80
2023/03/07 07:19:56;;;;;;;20.48;6.20;;;;;;;22.77;35.41;96506.19;5110864;28;20102;-80
2023/03/07 07:22:22;;;;;;;9.82;5.80;;;;;;;23.40;34.58;96508.00;5132852;27;20101;-81
2023/03/07 07:24:48;;;;;;;13.20;5.10;;;;;;;23.94;33.74;96502.59;5124065;27;20117;-78
2023/03/07 07:27:13;;;;;;;9.85;5.45;;;;;;;24.96;32.91;96513.44;5133742;27;20111;-77
2023/03/07 07:29:39;;;;;;;13.13;5.68;;;;;;;26.46;31.14;96525.13;5119287;27;20030;-81
2023/03/07 07:32:05;;;;;;;8.38;5.05;;;;;;;27.01;30.08;96516.16;5109226;27;20030;-80
2023/03/07 07:34:31;;;;;;;19.50;5.43;;;;;;;27.46;28.91;96500.38;5144508;27;20031;-78
2023/03/07 07:36:56;;;;;;;15.30;7.03;;;;;;;25.26;31.03;96455.28;5132762;27;20063;-79
2023/03/07 07:39:23;;;;;;;10.32;4.50;;;;;;;24.14;32.88;96456.28;5156914;27;20117;-80
2023/03/07 07:41:49;;;;;;;12.27;4.95;;;;;;;24.76;31.81;96470.44;5140180;27;20025;-81
2023/03/07 07:44:14;;;;;;;10.65;5.10;;;;;;;25.09;31.46;96462.28;5120153;27;20062;-85
2023/03/07 07:46:40;;;;;;;10.27;4.70;;;;;;;25.70;31.25;96470.19;5115046;27;20030;-82
2023/03/07 07:49:05;;;;;;;10.02;4.32;;;;;;;26.48;29.60;96474.50;5116583;27;20474;-84
2023/03/07 07:51:32;;;;;;;8.23;4.60;;;;;;;26.20;29.83;96460.31;5134866;27;20027;-83
2023/03/07 07:53:58;;;;;;;6.80;3.97;;;;;;;24.40;31.14;96419.94;5116509;27;20023;-86
2023/03/07 07:56:26;;;;;;;4.88;3.63;;;;;;;26.05;30.58;96465.22;5099003;27;20114;-83
2023/03/07 07:58:52;;;;;;;8.13;3.90;;;;;;;25.10;30.20;96428.38;5125219;27;20023;-83
2023/03/07 08:01:19;;;;;;;11.77;5.03;;;;;;;23.54;32.51;96400.53;5116224;27;20379;-83
2023/03/07 08:03:45;;;;;;;7.68;3.95;;;;;;;21.06;34.49;96365.31;5116463;27;20041;-80
2023/03/07 08:06:11;;;;;;;8.68;4.18;;;;;;;20.46;35.85;96375.50;5148103;27;20113;-80
2023/03/07 08:08:37;;;;;;;7.72;4.03;;;;;;;19.46;36.82;96353.03;5099120;27;20027;-80
2023/03/07 08:11:03;;;;;;;9.65;4.20;;;;;;;19.22;37.40;96371.28;5124197;27;20510;-81
2023/03/07 08:13:28;;;;;;;10.90;5.45;;;;;;;19.29;37.72;96393.94;5101695;27;20035;-79
2023/03/07 08:15:54;;;;;;;8.60;4.13;;;;;;;19.42;37.72;96394.25;5132695;27;20095;-78
2023/03/07 08:18:19;;;;;;;9.82;4.25;;;;;;;19.34;37.39;96395.13;5115633;27;20035;-78
2023/03/07 08:20:45;;;;;;;6.57;3.75;;;;;;;20.45;36.79;96420.00;5115411;27;20023;-77
2023/03/07 08:23:11;;;;;;;6.55;3.72;;;;;;;22.95;33.22;96467.56;5099401;28;20052;-79
2023/03/07 08:25:36;;;;;;;11.85;3.67;;;;;;;24.97;30.46;96477.66;5092144;28;20035;-78
2023/03/07 08:28:04;;;;;;;5.95;3.60;;;;;;;27.10;27.79;96492.84;5075032;28;20074;-78
2023/03/07 08:30:31;;;;;;;5.90;3.15;;;;;;;28.47;25.81;96485.03;5092047;28;20054;-79
2023/03/07 08:32:57;;;;;;;4.05;2.65;;;;;;;29.90;24.73;96493.13;5091413;28;20048;-79
2023/03/07 08:35:24;;;;;;;4.75;3.22;;;;;;;28.95;25.10;96449.16;5092957;28;20336;-79
2023/03/07 08:37:56;;;;;;;11.73;6.28;;;;;;;27.42;26.53;96425.81;5091481;28;20047;-78
2023/03/07 08:40:23;;;;;;;6.30;3.17;;;;;;;27.87;25.68;96440.09;5091690;28;20081;-79
2023/03/07 08:42:49;;;;;;;6.32;2.90;;;;;;;28.14;24.81;96429.63;5091600;28;20059;-79
2023/03/07 08:45:15;;;;;;;4.50;2.35;;;;;;;25.74;26.92;96376.41;5074592;28;20172;-80
2023/03/07 08:47:40;;;;;;;6.03;2.78;;;;;;;24.07;28.74;96346.91;5074439;28;20205;-78
2023/03/07 08:50:06;;;;;;;8.55;3.67;;;;;;;23.28;30.56;96331.31;5090978;28;20089;-79
2023/03/07 08:52:32;;;;;;;4.85;3.13;;;;;;;22.97;30.65;96337.25;5092259;28;20027;-79
2023/03/07 08:55:00;;;;;;;9.07;4.10;;;;;;;21.23;32.59;96306.13;5073985;28;20031;-79
2023/03/07 08:57:26;;;;;;;6.68;4.28;;;;;;;20.48;33.97;96317.25;5091143;28;20031;-79
2023/03/07 08:59:51;;;;;;;8.10;4.50;;;;;;;22.30;32.23;96380.59;5091603;28;20027;-80
2023/03/07 09:02:17;;;;;;;11.43;3.70;;;;;;;22.36;32.09;96358.84;5092534;28;20475;-79
2023/03/07 09:04:42;;;;;;;6.03;2.50;;;;;;;22.60;32.14;96371.19;5092336;28;20483;-79
2023/03/07 09:07:08;;;;;;;4.43;3.00;;;;;;;23.72;30.37;96387.16;5090908;28;20023;-79
2023/03/07 09:09:33;;;;;;;8.48;3.47;;;;;;;25.13;28.89;96403.28;5090928;28;20145;-80
2023/03/07 09:11:58;;;;;;;8.00;4.25;;;;;;;26.45;27.81;96417.34;5092114;28;20043;-79
2023/03/07 09:14:24;;;;;;;6.95;3.42;;;;;;;27.14;27.01;96411.69;5074387;28;20031;-79
2023/03/07 09:16:50;;;;;;;7.53;3.33;;;;;;;28.56;25.21;96438.75;5091319;28;20075;-80
2023/03/07 09:19:15;;;;;;;4.32;2.67;;;;;;;29.80;24.29;96452.34;5092219;28;20028;-80
2023/03/07 09:21:40;;;;;;;3.90;2.80;;;;;;;30.82;23.16;96441.44;5091670;28;20514;-77
2023/03/07 09:24:07;;;;;;;4.20;2.55;;;;;;;30.87;23.19;96438.78;5132696;27;20027;-78
2023/03/07 09:26:32;;;;;;;3.00;2.45;;;;;;;31.18;22.50;96421.66;5133274;27;20030;-79
2023/03/07 09:28:58;;;;;;;8.40;2.72;;;;;;;31.25;22.62;96413.19;5114880;27;20031;-79
2023/03/07 09:31:24;;;;;;;13.02;3.17;;;;;;;30.57;22.95;96387.44;5123656;27;20525;-83
2023/03/07 09:33:50;;;;;;;15.68;8.20;;;;;;;29.26;24.13;96357.13;5111424;27;20023;-81
2023/03/07 09:36:16;;;;;;;11.98;3.65;;;;;;;29.15;23.94;96338.66;5123234;27;20398;-80
2023/03/07 09:38:42;;;;;;;24.88;5.95;;;;;;;30.02;23.87;96361.53;5125851;27;20493;-79
2023/03/07 09:41:49;;;;;;;6.10;4.25;;;;;;;31.11;22.62;96372.06;5116891;27;20088;-77
2023/03/07 09:44:39;;;;;;;6.28;3.40;;;;;;;28.42;25.25;96318.97;5086504;27;20491;-75
2023/03/07 09:47:16;;;;;;;3.53;2.75;;;;;;;27.23;25.31;96277.66;5117402;27;20055;-75
2023/03/07 09:49:42;;;;;;;5.45;2.60;;;;;;;27.63;24.75;96289.00;5132200;27;20080;-75
2023/03/07 09:52:13;;;;;;;3.90;2.67;;;;;;;28.82;23.86;96327.41;5131998;27;20027;-75
2023/03/07 09:54:45;;;;;;;9.23;6.88;;;;;;;30.45;22.78;96355.47;5113601;27;20027;-76
2023/03/07 09:57:20;;;;;;;9.93;7.53;;;;;;;30.51;21.30;96316.66;5102460;28;20027;-76
2023/03/07 09:59:48;;;;;;;4.97;2.80;;;;;;;30.54;22.21;96321.69;5130947;27;20026;-75
2023/03/07 10:02:19;;;;;;;4.63;3.20;;;;;;;29.38;23.16;96289.03;5113558;27;20122;-75
2023/03/07 10:05:29;;;;;;;5.57;2.75;;;;;;;29.23;23.15;96291.44;5132000;27;20041;-75
2023/03/07 10:07:54;;;;;;;2.60;2.00;;;;;;;28.94;22.97;96281.44;5121728;27;20031;-77
2023/03/07 10:10:26;;;;;;;2.25;1.63;;;;;;;29.59;21.56;96280.09;5113331;27;20042;-75
2023/03/07 10:12:51;;;;;;;4.70;1.90;;;;;;;30.36;21.99;96308.09;5130600;27;20458;-75
2023/03/07 10:15:35;;;;;;;2.50;1.77;;;;;;;30.03;21.39;96280.41;5130671;27;20046;-75
2023/03/07 10:18:32;;;;;;;3.08;1.58;;;;;;;28.62;21.79;96216.78;5131699;27;20484;-75
2023/03/07 10:21:11;;;;;;;2.33;1.73;;;;;;;28.39;22.21;96218.44;5130484;27;20058;-76
2023/03/07 10:24:01;;;;;;;5.82;2.03;;;;;;;27.80;23.00;96204.84;5147235;27;20462;-75
2023/03/07 10:26:36;;;;;;;16.52;10.20;;;;;;;29.32;22.76;96262.47;5131611;27;20027;-76
2023/03/07 10:29:13;;;;;;;15.55;11.00;;;;;;;29.39;22.54;96252.13;5147589;27;20063;-76
2023/03/07 10:31:41;;;;;;;9.20;4.28;;;;;;;30.23;20.92;96255.97;5112898;28;20451;-76
2023/03/07 10:34:28;;;;;;;4.28;2.70;;;;;;;29.23;21.71;96218.97;5113148;28;20479;-76
2023/03/07 10:37:01;;;;;;;3.10;2.08;;;;;;;30.20;21.46;96252.88;5130237;27;20106;-74
2023/03/07 10:39:38;;;;;;;5.38;2.20;;;;;;;30.25;21.02;96225.34;5130127;28;20027;-75
2023/03/07 10:42:04;;;;;;;6.28;2.05;;;;;;;30.22;21.20;96228.59;5130309;27;20037;-75
2023/03/07 10:44:33;;;;;;;5.28;2.05;;;;;;;29.86;21.58;96218.88;5112968;28;20488;-75
2023/03/07 10:46:58;;;;;;;2.38;1.98;;;;;;;30.34;20.90;96219.16;5131312;27;20015;-75
2023/03/07 10:49:27;;;;;;;5.35;2.03;;;;;;;30.85;20.87;96234.63;5131303;27;20026;-75
2023/03/07 10:52:15;;;;;;;3.83;1.52;;;;;;;30.70;20.55;96214.25;5112880;28;20034;-75
2023/03/07 10:54:40;;;;;;;3.65;1.48;;;;;;;30.84;20.50;96207.25;5147189;27;20084;-75
2023/03/07 10:57:17;;;;;;;3.35;1.85;;;;;;;31.33;20.47;96214.56;5147797;27;20019;-75
2023/03/07 10:59:46;;;;;;;2.22;1.80;;;;;;;32.17;19.15;96221.34;5116713;27;20098;-74
2023/03/07 11:02:32;;;;;;;3.53;1.75;;;;;;;31.91;20.07;96221.31;5134106;27;20098;-76
2023/03/07 11:04:58;;;;;;;2.70;2.15;;;;;;;32.04;19.87;96215.38;5134084;27;20083;-75
2023/03/07 11:07:34;;;;;;;6.25;2.25;;;;;;;32.35;19.72;96206.25;5116840;27;20383;-76
2023/03/07 11:10:18;;;;;;;13.77;8.52;;;;;;;32.24;19.42;96193.41;5116840;27;20034;-75
2023/03/07 11:12:45;;;;;;;3.13;2.15;;;;;;;31.53;20.24;96173.34;5133567;27;20034;-75
2023/03/07 11:15:17;;;;;;;5.38;2.70;;;;;;;29.22;22.06;96110.72;5134041;27;20117;-74
2023/03/07 11:17:47;;;;;;;3.10;2.00;;;;;;;30.61;20.80;96162.19;5133607;27;20487;-74
2023/03/07 11:20:45;;;;;;;5.30;2.72;;;;;;;31.36;19.74;96175.34;5133643;27;20504;-74
2023/03/07 11:23:13;;;;;;;5.72;1.80;;;;;;;31.44;19.78;96172.09;5133506;27;20189;-74
2023/03/07 11:25:39;;;;;;;3.10;1.70;;;;;;;31.84;19.66;96171.72;5134705;27;20410;-75
2023/03/07 11:28:33;;;;;;;2.35;1.70;;;;;;;32.39;18.92;96181.66;5133702;27;20092;-76
2023/03/07 11:31:23;;;;;;;2.88;1.90;;;;;;;30.85;20.40;96140.72;5133324;27;20023;-74
2023/03/07 11:33:54;;;;;;;6.35;2.08;;;;;;;32.44;19.20;96182.50;5116021;27;20019;-77
2023/03/07 11:36:35;;;;;;;4.10;2.00;;;;;;;32.41;19.72;96176.66;5134878;27;20406;-76